Time;durP1;ratioP1;P1;durP2;ratioP2;P2;SDS_P1;SDS_P2;PMS_P1;PMS_P2;Temp;Humidity;BMP_temperature;BMP_pressure;BME280_temperature;BME280_humidity;BME280_pressure;Samples;Min_cycle;Max_cycle;Signal;HPM_P1;HPM_P2
2023/11/03 00:02:08;;;;;;;7.85;4.50;;;;;;;;;;5018949;28;20136;-60
2023/11/03 00:04:38;;;;;;;8.30;4.53;;;;;;;;;;5022043;28;20036;-61
2023/11/03 00:07:05;;;;;;;6.10;2.83;;;;;;;;;;5021366;28;20188;-62
2023/11/03 00:09:35;;;;;;;6.07;3.05;;;;;;;;;;5018871;28;20079;-61
2023/11/03 00:12:03;;;;;;;9.32;3.03;;;;;;;;;;5015142;28;20029;-61
2023/11/03 00:14:30;;;;;;;8.65;3.05;;;;;;;;;;5017801;28;20403;-60
2023/11/03 00:16:57;;;;;;;6.50;3.45;;;;;;;;;;5004150;28;21163;-61
2023/11/03 00:19:26;;;;;;;9.07;3.00;;;;;;;;;;5017202;28;20109;-60
2023/11/03 00:21:53;;;;;;;5.72;3.40;;;;;;;;;;5021258;28;20061;-62
2023/11/03 00:24:19;;;;;;;7.25;3.20;;;;;;;;;;5014798;28;20687;-62
2023/11/03 00:26:47;;;;;;;5.38;3.13;;;;;;;;;;5019906;28;20049;-61
2023/11/03 00:29:15;;;;;;;6.07;3.15;;;;;;;;;;5019171;28;20040;-62
2023/11/03 00:31:45;;;;;;;6.85;3.42;;;;;;;;;;5020735;28;20033;-61
2023/11/03 00:34:15;;;;;;;5.78;3.22;;;;;;;;;;5021388;28;20065;-61
2023/11/03 00:36:42;;;;;;;6.10;3.28;;;;;;;;;;5020910;28;20048;-60
2023/11/03 00:39:12;;;;;;;8.70;3.58;;;;;;;;;;5013434;28;20025;-62
2023/11/03 00:41:47;;;;;;;8.30;4.13;;;;;;;;;;5020174;28;20022;-60
2023/11/03 00:44:13;;;;;;;8.60;3.05;;;;;;;;;;5017197;28;20026;-61
2023/11/03 00:46:39;;;;;;;5.45;3.33;;;;;;;;;;5021078;28;20060;-61
2023/11/03 00:49:07;;;;;;;6.75;3.22;;;;;;;;;;5021864;28;20025;-61
2023/11/03 00:51:33;;;;;;;8.63;3.70;;;;;;;;;;5021907;28;20487;-61
2023/11/03 00:54:00;;;;;;;5.38;3.30;;;;;;;;;;5020616;28;20025;-61
2023/11/03 00:56:28;;;;;;;6.35;3.65;;;;;;;;;;5018885;28;20030;-62
2023/11/03 00:58:54;;;;;;;6.85;2.78;;;;;;;;;;5011376;28;20041;-63
2023/11/03 01:01:21;;;;;;;6.00;3.40;;;;;;;;;;5012136;28;20026;-62
2023/11/03 01:03:47;;;;;;;6.25;3.70;;;;;;;;;;5017907;28;20091;-62
2023/11/03 01:06:13;;;;;;;13.60;4.82;;;;;;;;;;5015603;28;20064;-62
2023/11/03 01:08:40;;;;;;;6.70;3.55;;;;;;;;;;5020989;28;20041;-62
2023/11/03 01:11:09;;;;;;;8.88;3.30;;;;;;;;;;5023066;28;20033;-60
2023/11/03 01:13:39;;;;;;;6.32;3.40;;;;;;;;;;5016942;28;20422;-60
2023/11/03 01:16:09;;;;;;;8.00;3.75;;;;;;;;;;5018725;28;20061;-61
2023/11/03 01:18:37;;;;;;;8.23;4.15;;;;;;;;;;5013757;28;20054;-63
2023/11/03 01:21:12;;;;;;;5.68;3.45;;;;;;;;;;5015976;28;20483;-60
2023/11/03 01:23:41;;;;;;;;;;;;;;;;;;5021549;28;20128;-61
2023/11/03 01:26:07;;;;;;;5.32;3.22;;;;;;;;;;5016377;28;19913;-62
2023/11/03 01:28:34;;;;;;;10.85;4.13;;;;;;;;;;5022032;28;20041;-60
2023/11/03 01:31:00;;;;;;;6.72;3.88;;;;;;;;;;5019913;28;20029;-61
2023/11/03 01:33:26;;;;;;;7.03;3.30;;;;;;;;;;5024445;28;20102;-60
2023/11/03 01:35:53;;;;;;;9.02;4.05;;;;;;;;;;5017012;28;20021;-61
2023/11/03 01:38:19;;;;;;;6.43;3.30;;;;;;;;;;5023581;28;20033;-64
2023/11/03 01:40:45;;;;;;;9.43;3.72;;;;;;;;;;5018769;28;20144;-61
2023/11/03 01:43:11;;;;;;;4.78;3.25;;;;;;;;;;5018725;28;20107;-61
2023/11/03 01:45:37;;;;;;;6.88;3.58;;;;;;;;;;5015380;28;20029;-62
2023/11/03 01:48:03;;;;;;;8.30;3.95;;;;;;;;;;5018125;28;20049;-61
2023/11/03 01:50:30;;;;;;;9.10;4.20;;;;;;;;;;5034610;28;20044;-61
2023/11/03 01:52:56;;;;;;;6.45;3.80;;;;;;;;;;5018860;28;20036;-61
2023/11/03 01:55:23;;;;;;;6.03;4.25;;;;;;;;;;5012472;28;20053;-61
2023/11/03 01:57:49;;;;;;;8.40;4.47;;;;;;;;;;5023878;28;20038;-61
2023/11/03 02:00:16;;;;;;;7.55;4.65;;;;;;;;;;5017043;28;20029;-61
2023/11/03 02:02:43;;;;;;;7.20;4.82;;;;;;;;;;5037160;28;20070;-61
2023/11/03 02:05:09;;;;;;;6.35;4.63;;;;;;;;;;5040125;28;20028;-60
2023/11/03 02:07:35;;;;;;;11.82;4.97;;;;;;;;;;5039776;28;20065;-61
2023/11/03 02:10:06;;;;;;;9.40;5.05;;;;;;;;;;5032835;28;20036;-61
2023/11/03 02:12:33;;;;;;;6.82;4.53;;;;;;;;;;5039551;28;20049;-61
2023/11/03 02:15:00;;;;;;;9.50;5.10;;;;;;;;;;5036830;28;20036;-62
2023/11/03 02:17:26;;;;;;;7.75;4.32;;;;;;;;;;5036917;28;20032;-61
2023/11/03 02:19:53;;;;;;;7.63;4.32;;;;;;;;;;5031545;28;20326;-63
2023/11/03 02:22:19;;;;;;;9.25;4.25;;;;;;;;;;5034736;28;20538;-61
2023/11/03 02:24:45;;;;;;;5.85;4.05;;;;;;;;;;5039959;28;20017;-61
2023/11/03 02:27:11;;;;;;;7.05;4.40;;;;;;;;;;5053770;28;20032;-61
2023/11/03 02:29:37;;;;;;;6.70;4.20;;;;;;;;;;5017229;28;20021;-61
2023/11/03 02:32:03;;;;;;;6.18;4.80;;;;;;;;;;5039155;28;20037;-61
2023/11/03 02:34:29;;;;;;;10.63;5.78;;;;;;;;;;5029810;28;20410;-61
2023/11/03 02:36:55;;;;;;;12.23;6.28;;;;;;;;;;5041066;28;20112;-62
2023/11/03 02:39:22;;;;;;;17.50;6.60;;;;;;;;;;5035532;28;20036;-61
2023/11/03 02:41:48;;;;;;;13.27;7.55;;;;;;;;;;5046461;28;20083;-63
2023/11/03 02:44:14;;;;;;;13.90;6.78;;;;;;;;;;5036524;28;20033;-61
2023/11/03 02:46:44;;;;;;;11.75;7.15;;;;;;;;;;5041819;28;20517;-61
2023/11/03 02:49:10;;;;;;;15.05;7.68;;;;;;;;;;5034428;28;20063;-61
2023/11/03 02:51:37;;;;;;;14.13;7.35;;;;;;;;;;5039343;28;20037;-61
2023/11/03 02:54:03;;;;;;;21.02;8.50;;;;;;;;;;5039084;28;20123;-60
2023/11/03 02:56:29;;;;;;;18.88;8.65;;;;;;;;;;5040938;28;20029;-63
2023/11/03 02:58:56;;;;;;;21.20;9.20;;;;;;;;;;5033260;28;20116;-63
2023/11/03 03:01:28;;;;;;;20.80;9.07;;;;;;;;;;5035224;28;20108;-61
2023/11/03 03:03:54;;;;;;;15.23;8.68;;;;;;;;;;5034061;28;20397;-62
2023/11/03 03:06:20;;;;;;;19.42;9.55;;;;;;;;;;5038842;28;20017;-61
2023/11/03 03:08:47;;;;;;;22.80;9.70;;;;;;;;;;5038318;28;20490;-61
2023/11/03 03:11:13;;;;;;;15.43;8.02;;;;;;;;;;5033216;28;20451;-62
2023/11/03 03:13:40;;;;;;;18.83;7.90;;;;;;;;;;5017739;28;20127;-62
2023/11/03 03:16:07;;;;;;;17.60;8.43;;;;;;;;;;5035379;28;20581;-61
2023/11/03 03:18:33;;;;;;;15.23;7.25;;;;;;;;;;5040034;28;20390;-61
2023/11/03 03:20:59;;;;;;;16.60;7.70;;;;;;;;;;5033461;28;20021;-63
2023/11/03 03:23:25;;;;;;;18.33;7.68;;;;;;;;;;5036517;28;20022;-61
2023/11/03 03:25:51;;;;;;;16.13;7.55;;;;;;;;;;5038961;28;20057;-61
2023/11/03 03:28:18;;;;;;;15.32;7.20;;;;;;;;;;5035922;28;20108;-61
2023/11/03 03:30:44;;;;;;;13.30;5.72;;;;;;;;;;5025154;28;20314;-60
2023/11/03 03:33:10;;;;;;;10.50;6.78;;;;;;;;;;5029547;28;20383;-61
2023/11/03 03:35:36;;;;;;;13.10;7.60;;;;;;;;;;5035648;28;20108;-62
2023/11/03 03:38:02;;;;;;;10.55;5.65;;;;;;;;;;5038781;28;20037;-61
2023/11/03 03:40:28;;;;;;;13.07;7.10;;;;;;;;;;5034051;28;20474;-66
2023/11/03 03:42:54;;;;;;;12.38;6.10;;;;;;;;;;5040387;28;20063;-62
2023/11/03 03:45:20;;;;;;;14.30;7.22;;;;;;;;;;5040757;28;20444;-61
2023/11/03 03:47:46;;;;;;;11.73;6.30;;;;;;;;;;5037461;28;20051;-61
2023/11/03 03:50:12;;;;;;;15.15;6.50;;;;;;;;;;5043024;28;20406;-65
2023/11/03 03:52:39;;;;;;;15.82;6.18;;;;;;;;;;5037458;28;20067;-61
2023/11/03 03:55:05;;;;;;;13.57;7.80;;;;;;;;;;5037635;28;20651;-61
2023/11/03 03:57:32;;;;;;;11.13;4.97;;;;;;;;;;5041395;28;20060;-60
2023/11/03 03:59:58;;;;;;;7.45;4.97;;;;;;;;;;5039647;28;20028;-60
2023/11/03 04:02:24;;;;;;;10.07;5.35;;;;;;;;;;5026618;28;20041;-59
2023/11/03 04:04:50;;;;;;;9.02;5.30;;;;;;;;;;5021908;28;20155;-61
2023/11/03 04:07:17;;;;;;;11.52;5.30;;;;;;;;;;5021706;28;20038;-60
2023/11/03 04:09:43;;;;;;;6.68;4.57;;;;;;;;;;5012623;28;20106;-61
2023/11/03 04:12:10;;;;;;;9.18;5.38;;;;;;;;;;5015661;28;20424;-60
2023/11/03 04:14:36;;;;;;;9.95;5.22;;;;;;;;;;5021012;28;20056;-61
2023/11/03 04:17:03;;;;;;;11.27;5.05;;;;;;;;;;5015062;28;20127;-63
2023/11/03 04:19:29;;;;;;;7.85;4.80;;;;;;;;;;5023153;28;20546;-61
2023/11/03 04:21:55;;;;;;;8.52;5.00;;;;;;;;;;5015580;28;20112;-62
2023/11/03 04:24:21;;;;;;;9.27;4.82;;;;;;;;;;5020676;28;20450;-62
2023/11/03 04:26:48;;;;;;;8.27;4.97;;;;;;;;;;5018904;28;20563;-61
2023/11/03 04:29:14;;;;;;;11.32;5.22;;;;;;;;;;5020098;28;20504;-60
2023/11/03 04:31:40;;;;;;;9.82;5.15;;;;;;;;;;5024064;28;20040;-61
2023/11/03 04:34:06;;;;;;;7.13;4.28;;;;;;;;;;5019439;28;20026;-63
2023/11/03 04:36:32;;;;;;;8.73;4.93;;;;;;;;;;5016198;28;20072;-60
2023/11/03 04:38:59;;;;;;;7.60;4.88;;;;;;;;;;5014395;28;20505;-60
2023/11/03 04:41:25;;;;;;;10.10;4.85;;;;;;;;;;5026865;28;20025;-63
2023/11/03 04:43:51;;;;;;;7.45;4.03;;;;;;;;;;5014386;28;20117;-61
2023/11/03 04:46:17;;;;;;;7.93;4.60;;;;;;;;;;5023764;28;20033;-60
2023/11/03 04:48:46;;;;;;;9.43;4.68;;;;;;;;;;5017220;28;20389;-64
2023/11/03 04:51:13;;;;;;;10.13;5.28;;;;;;;;;;5020719;28;20030;-61
2023/11/03 04:53:40;;;;;;;8.10;4.05;;;;;;;;;;5017670;28;20040;-61
2023/11/03 04:56:06;;;;;;;6.90;4.13;;;;;;;;;;5007276;28;20316;-60
2023/11/03 04:58:32;;;;;;;7.93;3.95;;;;;;;;;;5019732;28;20398;-60
2023/11/03 05:00:58;;;;;;;7.60;4.03;;;;;;;;;;5002054;28;20029;-60
2023/11/03 05:03:24;;;;;;;9.05;4.53;;;;;;;;;;5038099;28;20060;-61
2023/11/03 05:05:50;;;;;;;12.07;4.53;;;;;;;;;;5038488;28;20026;-60
2023/11/03 05:08:16;;;;;;;8.65;4.10;;;;;;;;;;5036689;28;20037;-65
2023/11/03 05:10:43;;;;;;;9.82;4.28;;;;;;;;;;5041878;28;20477;-66
2023/11/03 05:13:09;;;;;;;9.98;4.53;;;;;;;;;;5022640;28;20049;-61
2023/11/03 05:15:35;;;;;;;6.15;4.35;;;;;;;;;;5038089;28;20059;-65
2023/11/03 05:18:01;;;;;;;10.25;4.65;;;;;;;;;;5037305;28;20053;-61
2023/11/03 05:20:27;;;;;;;9.13;3.85;;;;;;;;;;5042080;28;20112;-61
2023/11/03 05:22:54;;;;;;;9.05;4.55;;;;;;;;;;5045730;28;20426;-62
2023/11/03 05:25:20;;;;;;;5.15;3.35;;;;;;;;;;5041133;28;20102;-61
2023/11/03 05:27:47;;;;;;;9.18;4.18;;;;;;;;;;5032503;28;20026;-61
2023/11/03 05:30:14;;;;;;;5.05;3.50;;;;;;;;;;5026561;28;20037;-65
2023/11/03 05:32:40;;;;;;;7.75;4.10;;;;;;;;;;5040180;28;20032;-61
2023/11/03 05:35:06;;;;;;;8.20;4.05;;;;;;;;;;5027326;28;20086;-60
2023/11/03 05:37:32;;;;;;;7.90;3.97;;;;;;;;;;5027358;28;20033;-60
2023/11/03 05:39:59;;;;;;;6.97;3.88;;;;;;;;;;5041346;28;20102;-60
2023/11/03 05:42:25;;;;;;;6.93;4.13;;;;;;;;;;5038008;28;20469;-60
2023/11/03 05:44:51;;;;;;;8.52;4.07;;;;;;;;;;5032930;28;20024;-60
2023/11/03 05:47:17;;;;;;;10.68;4.38;;;;;;;;;;5031090;28;20490;-60
2023/11/03 05:49:43;;;;;;;6.82;4.18;;;;;;;;;;5041726;28;20082;-60
2023/11/03 05:52:09;;;;;;;4.70;3.33;;;;;;;;;;5009681;28;20138;-61
2023/11/03 05:54:35;;;;;;;5.10;3.47;;;;;;;;;;5035411;28;20527;-61
2023/11/03 05:57:02;;;;;;;8.98;3.78;;;;;;;;;;5038291;28;20486;-60
2023/11/03 05:59:29;;;;;;;8.63;4.25;;;;;;;;;;5011975;28;20116;-60
2023/11/03 06:01:55;;;;;;;5.93;3.85;;;;;;;;;;5035375;28;20091;-60
2023/11/03 06:04:22;;;;;;;4.95;3.35;;;;;;;;;;5036506;28;20033;-61
2023/11/03 06:06:50;;;;;;;8.05;3.63;;;;;;;;;;5034523;28;20108;-61
2023/11/03 06:09:17;;;;;;;4.10;3.22;;;;;;;;;;5022781;28;20047;-60
2023/11/03 06:11:43;;;;;;;7.78;3.30;;;;;;;;;;5019308;28;20033;-60
2023/11/03 06:14:09;;;;;;;6.35;3.13;;;;;;;;;;5019029;28;20056;-60
2023/11/03 06:16:35;;;;;;;6.72;3.35;;;;;;;;;;5035551;28;20033;-60
2023/11/03 06:19:02;;;;;;;6.35;3.50;;;;;;;;;;5034734;28;20033;-60
2023/11/03 06:21:28;;;;;;;11.15;3.85;;;;;;;;;;5035601;28;20037;-60
2023/11/03 06:23:55;;;;;;;4.55;3.33;;;;;;;;;;5031825;28;20017;-60
2023/11/03 06:26:21;;;;;;;7.70;3.50;;;;;;;;;;5034491;28;20167;-62
2023/11/03 06:28:47;;;;;;;6.45;3.55;;;;;;;;;;5021548;28;20040;-61
2023/11/03 06:31:13;;;;;;;8.65;3.65;;;;;;;;;;5033233;28;20813;-61
2023/11/03 06:33:39;;;;;;;5.80;3.20;;;;;;;;;;5037858;28;20029;-62
2023/11/03 06:36:06;;;;;;;7.07;3.20;;;;;;;;;;5032830;28;20420;-61
2023/11/03 06:38:32;;;;;;;5.85;3.17;;;;;;;;;;5035146;28;20080;-61
2023/11/03 06:40:58;;;;;;;6.97;3.55;;;;;;;;;;5037499;28;20036;-62
2023/11/03 06:43:25;;;;;;;5.32;3.05;;;;;;;;;;5032105;28;20029;-61
2023/11/03 06:45:51;;;;;;;14.50;3.83;;;;;;;;;;5035002;28;20161;-61
2023/11/03 06:48:17;;;;;;;5.15;3.28;;;;;;;;;;5033121;28;20075;-61
2023/11/03 06:50:43;;;;;;;6.68;3.50;;;;;;;;;;5038929;28;20201;-61
2023/11/03 06:53:09;;;;;;;6.18;3.13;;;;;;;;;;5042683;28;20029;-60
2023/11/03 06:55:36;;;;;;;4.57;3.83;;;;;;;;;;5015316;28;20025;-61
2023/11/03 06:58:02;;;;;;;5.97;3.03;;;;;;;;;;5017627;28;20128;-68
2023/11/03 07:00:29;;;;;;;6.43;3.55;;;;;;;;;;5015826;28;20021;-68
2023/11/03 07:02:56;;;;;;;7.40;2.83;;;;;;;;;;5036466;28;20045;-68
2023/11/03 07:05:24;;;;;;;4.85;3.42;;;;;;;;;;5042666;28;20064;-68
2023/11/03 07:07:50;;;;;;;4.80;3.13;;;;;;;;;;5034087;28;20368;-68
2023/11/03 07:10:16;;;;;;;4.22;3.47;;;;;;;;;;5041909;28;20025;-67
2023/11/03 07:12:45;;;;;;;6.80;3.33;;;;;;;;;;5041571;28;20390;-68
2023/11/03 07:15:14;;;;;;;8.13;3.30;;;;;;;;;;5031719;28;20491;-67
2023/11/03 07:17:41;;;;;;;5.10;3.15;;;;;;;;;;5015316;28;20033;-67
2023/11/03 07:20:08;;;;;;;5.70;2.85;;;;;;;;;;5037633;28;20479;-69
2023/11/03 07:22:34;;;;;;;6.97;3.13;;;;;;;;;;5037260;28;20036;-68
2023/11/03 07:25:00;;;;;;;6.55;3.13;;;;;;;;;;5034656;28;20036;-68
2023/11/03 07:27:26;;;;;;;9.73;3.00;;;;;;;;;;5033564;28;20029;-68
2023/11/03 07:29:52;;;;;;;4.28;2.65;;;;;;;;;;5038061;28;20037;-68
2023/11/03 07:32:18;;;;;;;5.90;2.85;;;;;;;;;;5023718;28;20041;-68
2023/11/03 07:34:45;;;;;;;3.53;2.88;;;;;;;;;;5036807;28;20047;-68
2023/11/03 07:37:12;;;;;;;6.95;3.22;;;;;;;;;;5036109;28;20032;-68
2023/11/03 07:39:39;;;;;;;6.82;3.05;;;;;;;;;;5041002;28;20027;-67
2023/11/03 07:42:05;;;;;;;4.45;2.72;;;;;;;;;;5040552;28;20148;-68
2023/11/03 07:44:32;;;;;;;6.00;2.90;;;;;;;;;;5042851;28;20039;-67
2023/11/03 07:46:58;;;;;;;8.48;3.15;;;;;;;;;;5016250;28;20505;-68
2023/11/03 07:49:24;;;;;;;3.65;2.45;;;;;;;;;;5039370;28;20037;-67
2023/11/03 07:51:51;;;;;;;7.05;3.40;;;;;;;;;;5034804;28;20032;-68
2023/11/03 07:54:19;;;;;;;4.88;3.10;;;;;;;;;;5035713;28;20509;-70
2023/11/03 07:56:45;;;;;;;3.17;2.42;;;;;;;;;;5039727;28;20474;-68
2023/11/03 07:59:11;;;;;;;3.83;2.90;;;;;;;;;;5039972;28;20033;-67
2023/11/03 08:01:37;;;;;;;5.00;3.00;;;;;;;;;;5025832;28;20052;-67
2023/11/03 08:04:05;;;;;;;4.88;2.60;;;;;;;;;;5043874;28;20136;-68
2023/11/03 08:06:31;;;;;;;7.32;3.08;;;;;;;;;;5042271;28;20025;-67
2023/11/03 08:08:58;;;;;;;3.83;2.45;;;;;;;;;;5041219;28;20025;-68
2023/11/03 08:11:24;;;;;;;3.70;2.17;;;;;;;;;;5034108;28;20431;-69
2023/11/03 08:13:50;;;;;;;4.72;2.65;;;;;;;;;;5039149;28;20430;-68
2023/11/03 08:16:16;;;;;;;6.95;2.60;;;;;;;;;;5037162;28;20532;-68
2023/11/03 08:18:42;;;;;;;5.53;2.63;;;;;;;;;;5034642;28;20517;-69
2023/11/03 08:21:08;;;;;;;5.47;2.42;;;;;;;;;;5037030;28;20107;-67
2023/11/03 08:23:35;;;;;;;3.92;2.40;;;;;;;;;;5047053;28;20184;-68
2023/11/03 08:26:02;;;;;;;5.75;2.45;;;;;;;;;;5037693;28;20061;-69
2023/11/03 08:28:28;;;;;;;4.63;2.40;;;;;;;;;;5023076;28;20032;-69
2023/11/03 08:30:54;;;;;;;6.68;2.40;;;;;;;;;;5030846;28;20223;-68
2023/11/03 08:33:20;;;;;;;6.68;2.60;;;;;;;;;;5016823;28;20060;-68
2023/11/03 08:35:49;;;;;;;4.63;2.55;;;;;;;;;;5033390;28;20040;-68
2023/11/03 08:38:15;;;;;;;5.65;2.80;;;;;;;;;;5036545;28;20095;-67
2023/11/03 08:40:41;;;;;;;5.30;2.13;;;;;;;;;;5044377;28;20036;-67
2023/11/03 08:43:07;;;;;;;4.15;2.00;;;;;;;;;;5036837;28;20033;-68
2023/11/03 08:45:33;;;;;;;10.20;3.33;;;;;;;;;;5040996;28;20386;-68
2023/11/03 08:48:01;;;;;;;3.83;2.22;;;;;;;;;;5034901;28;20034;-68
2023/11/03 08:50:27;;;;;;;4.05;2.22;;;;;;;;;;5026660;28;20076;-69
2023/11/03 08:52:54;;;;;;;6.53;3.10;;;;;;;;;;5035603;28;20041;-68
2023/11/03 08:55:22;;;;;;;4.78;2.40;;;;;;;;;;5037650;28;20025;-67
2023/11/03 08:57:48;;;;;;;2.65;2.20;;;;;;;;;;5039467;28;20379;-67
2023/11/03 09:00:19;;;;;;;6.28;2.72;;;;;;;;;;5042047;28;20021;-68
2023/11/03 09:02:49;;;;;;;4.40;2.60;;;;;;;;;;5034580;28;20056;-68
2023/11/03 09:05:15;;;;;;;6.70;2.83;;;;;;;;;;5039938;28;20025;-69
2023/11/03 09:07:42;;;;;;;3.80;2.63;;;;;;;;;;5039827;28;20481;-68
2023/11/03 09:10:12;;;;;;;6.45;2.78;;;;;;;;;;5034249;28;20086;-67
2023/11/03 09:12:41;;;;;;;5.90;3.10;;;;;;;;;;5036834;28;20028;-70
2023/11/03 09:15:07;;;;;;;3.95;2.60;;;;;;;;;;5041541;28;20036;-68
2023/11/03 09:17:34;;;;;;;6.68;2.63;;;;;;;;;;5023961;28;20474;-67
2023/11/03 09:20:00;;;;;;;3.20;2.20;;;;;;;;;;5037336;28;20036;-66
2023/11/03 09:22:27;;;;;;;3.50;2.67;;;;;;;;;;5035643;28;20017;-66
2023/11/03 09:24:56;;;;;;;3.75;3.05;;;;;;;;;;5035372;28;20029;-67
2023/11/03 09:27:22;;;;;;;3.65;2.47;;;;;;;;;;5039522;28;20045;-67
2023/11/03 09:29:48;;;;;;;5.78;2.58;;;;;;;;;;5037632;28;20040;-67
2023/11/03 09:32:15;;;;;;;2.97;2.20;;;;;;;;;;5022311;28;20139;-67
2023/11/03 09:34:42;;;;;;;5.70;2.65;;;;;;;;;;5027906;28;20094;-68
2023/11/03 09:37:08;;;;;;;7.57;2.83;;;;;;;;;;5035661;28;20033;-67
2023/11/03 09:39:36;;;;;;;6.40;2.47;;;;;;;;;;5039300;28;20033;-68
2023/11/03 09:42:03;;;;;;;10.85;2.75;;;;;;;;;;5039264;28;20028;-67
2023/11/03 09:44:31;;;;;;;7.82;2.85;;;;;;;;;;5032242;28;20033;-67
2023/11/03 09:46:59;;;;;;;8.02;3.38;;;;;;;;;;5031607;28;20390;-67
2023/11/03 09:49:25;;;;;;;6.35;2.63;;;;;;;;;;5029303;28;20546;-68
2023/11/03 09:51:51;;;;;;;7.45;3.13;;;;;;;;;;5037982;28;20068;-67
2023/11/03 09:54:18;;;;;;;6.05;2.92;;;;;;;;;;5022658;28;20558;-68
2023/11/03 09:56:45;;;;;;;5.82;2.67;;;;;;;;;;5041659;28;20020;-67
2023/11/03 09:59:15;;;;;;;3.22;2.40;;;;;;;;;;5035696;28;20033;-68
2023/11/03 10:01:41;;;;;;;5.53;2.35;;;;;;;;;;5035383;28;20498;-67
2023/11/03 10:04:08;;;;;;;6.80;2.63;;;;;;;;;;5039642;28;20060;-67
2023/11/03 10:06:37;;;;;;;4.32;2.35;;;;;;;;;;5036028;28;20457;-67
2023/11/03 10:09:03;;;;;;;3.03;2.30;;;;;;;;;;5039561;28;20559;-68
2023/11/03 10:11:30;;;;;;;3.78;2.40;;;;;;;;;;5017845;28;20124;-67
2023/11/03 10:13:56;;;;;;;4.63;2.20;;;;;;;;;;5020753;28;20390;-68
2023/11/03 10:16:22;;;;;;;4.85;2.42;;;;;;;;;;5019817;28;20164;-69
2023/11/03 10:18:48;;;;;;;4.25;2.42;;;;;;;;;;5037336;28;20366;-67
2023/11/03 10:21:14;;;;;;;3.03;2.17;;;;;;;;;;5021725;28;20108;-68
2023/11/03 10:23:40;;;;;;;6.80;2.20;;;;;;;;;;5021736;28;20131;-68
2023/11/03 10:26:07;;;;;;;2.85;2.05;;;;;;;;;;5035437;28;20026;-67
2023/11/03 10:28:33;;;;;;;8.98;2.58;;;;;;;;;;5034840;28;20635;-68
2023/11/03 10:31:01;;;;;;;4.47;2.00;;;;;;;;;;5038457;28;20025;-69
2023/11/03 10:33:28;;;;;;;5.93;2.40;;;;;;;;;;5021685;28;20059;-67
2023/11/03 10:35:55;;;;;;;4.95;2.22;;;;;;;;;;5015615;28;20044;-68
2023/11/03 10:38:23;;;;;;;3.25;2.20;;;;;;;;;;5040613;28;20116;-69
2023/11/03 10:40:49;;;;;;;4.60;2.10;;;;;;;;;;5026145;28;20124;-69
2023/11/03 10:43:19;;;;;;;4.70;2.03;;;;;;;;;;5022684;28;20037;-68
2023/11/03 10:45:50;;;;;;;7.80;2.22;;;;;;;;;;5014989;28;20055;-70
2023/11/03 10:48:27;;;;;;;3.15;2.05;;;;;;;;;;5034633;28;20450;-69
2023/11/03 10:51:04;;;;;;;6.30;2.22;;;;;;;;;;5034765;28;20060;-69
2023/11/03 10:53:41;;;;;;;4.50;2.50;;;;;;;;;;5042164;28;20033;-69
2023/11/03 10:56:10;;;;;;;2.33;2.13;;;;;;;;;;5016611;28;20552;-69
2023/11/03 10:58:37;;;;;;;4.45;1.98;;;;;;;;;;5039838;28;20036;-68
2023/11/03 11:01:15;;;;;;;3.97;2.00;;;;;;;;;;5034367;28;20041;-68
2023/11/03 11:03:54;;;;;;;5.85;2.78;;;;;;;;;;5017987;28;20103;-69
2023/11/03 11:06:22;;;;;;;2.35;2.15;;;;;;;;;;5032036;28;20083;-67
2023/11/03 11:08:51;;;;;;;5.90;2.15;;;;;;;;;;5025166;28;20025;-69
2023/11/03 11:11:17;;;;;;;5.18;1.88;;;;;;;;;;5037524;28;20045;-68
2023/11/03 11:13:43;;;;;;;5.78;2.38;;;;;;;;;;5033127;28;20064;-68
2023/11/03 11:16:12;;;;;;;4.97;2.15;;;;;;;;;;5037338;28;20057;-70
2023/11/03 11:18:52;;;;;;;5.70;1.95;;;;;;;;;;5039236;28;20031;-68
2023/11/03 11:21:30;;;;;;;2.20;1.90;;;;;;;;;;5034754;28;20041;-68
2023/11/03 11:23:56;;;;;;;3.83;2.28;;;;;;;;;;5031093;28;20076;-69
2023/11/03 11:26:25;;;;;;;6.10;2.25;;;;;;;;;;5041431;28;20046;-67
2023/11/03 11:28:51;;;;;;;2.05;1.75;;;;;;;;;;5033387;28;20044;-69
2023/11/03 11:31:24;;;;;;;5.70;2.47;;;;;;;;;;5013018;28;20029;-67
2023/11/03 11:34:10;;;;;;;4.80;2.05;;;;;;;;;;5039113;28;20035;-69
2023/11/03 11:36:39;;;;;;;4.88;2.88;;;;;;;;;;5035204;28;20104;-69
2023/11/03 11:39:15;;;;;;;4.57;2.58;;;;;;;;;;5028639;28;20041;-68
2023/11/03 11:41:53;;;;;;;4.03;2.22;;;;;;;;;;5032073;28;20037;-69
2023/11/03 11:44:22;;;;;;;2.65;1.70;;;;;;;;;;5032363;28;20324;-69
2023/11/03 11:46:52;;;;;;;7.30;3.15;;;;;;;;;;5041020;28;20033;-68
2023/11/03 11:49:20;;;;;;;5.03;2.45;;;;;;;;;;5033093;28;20032;-69
2023/11/03 11:51:48;;;;;;;5.18;2.40;;;;;;;;;;5033864;28;20447;-69
2023/11/03 11:54:16;;;;;;;5.50;2.30;;;;;;;;;;5018859;28;20032;-68
2023/11/03 11:56:42;;;;;;;5.65;2.30;;;;;;;;;;5037941;28;20522;-68
2023/11/03 11:59:09;;;;;;;4.15;2.20;;;;;;;;;;5035846;28;20032;-68
2023/11/03 12:01:35;;;;;;;8.35;2.00;;;;;;;;;;5035894;28;20367;-68
2023/11/03 12:04:03;;;;;;;2.75;2.08;;;;;;;;;;5029226;28;20037;-68
2023/11/03 12:06:30;;;;;;;7.80;2.58;;;;;;;;;;5038462;28;20021;-69
2023/11/03 12:08:58;;;;;;;6.38;2.13;;;;;;;;;;5037237;28;20037;-69
2023/11/03 12:11:24;;;;;;;4.28;2.30;;;;;;;;;;5043779;28;20068;-68
2023/11/03 12:13:51;;;;;;;5.78;2.50;;;;;;;;;;5044344;28;20029;-68
2023/11/03 12:16:20;;;;;;;3.63;2.10;;;;;;;;;;5028686;28;20498;-68
2023/11/03 12:18:49;;;;;;;5.25;2.53;;;;;;;;;;5011720;28;20025;-68
2023/11/03 12:21:15;;;;;;;3.90;2.42;;;;;;;;;;5039272;28;20036;-68
2023/11/03 12:23:42;;;;;;;5.18;2.00;;;;;;;;;;5039900;28;20029;-68
2023/11/03 12:26:10;;;;;;;8.43;2.40;;;;;;;;;;5036980;28;20018;-69
2023/11/03 12:28:38;;;;;;;4.47;1.88;;;;;;;;;;5041028;28;20036;-69
2023/11/03 12:31:04;;;;;;;5.65;2.80;;;;;;;;;;5039676;28;20132;-69
2023/11/03 12:33:31;;;;;;;2.72;2.13;;;;;;;;;;5039384;28;20059;-69
2023/11/03 12:35:57;;;;;;;9.70;3.35;;;;;;;;;;5039591;28;20029;-67
2023/11/03 12:38:24;;;;;;;9.88;3.70;;;;;;;;;;5041973;28;20544;-67
2023/11/03 12:40:50;;;;;;;6.57;3.90;;;;;;;;;;5042237;28;20423;-68
2023/11/03 12:43:18;;;;;;;7.35;3.63;;;;;;;;;;5041918;28;20548;-67
2023/11/03 12:45:45;;;;;;;6.95;3.53;;;;;;;;;;5031505;28;20176;-67
2023/11/03 12:48:20;;;;;;;4.35;2.47;;;;;;;;;;5046961;28;20364;-68
2023/11/03 12:50:54;;;;;;;5.18;3.38;;;;;;;;;;5043769;28;20053;-68
2023/11/03 12:53:20;;;;;;;5.25;2.45;;;;;;;;;;5038931;28;20561;-69
2023/11/03 12:55:46;;;;;;;9.13;2.45;;;;;;;;;;5030665;28;20025;-67
2023/11/03 12:58:14;;;;;;;2.70;1.90;;;;;;;;;;5029970;28;20445;-68
2023/11/03 13:00:41;;;;;;;5.25;2.75;;;;;;;;;;5034351;28;20014;-68
2023/11/03 13:03:07;;;;;;;9.85;3.80;;;;;;;;;;5040716;28;20053;-71
2023/11/03 13:05:34;;;;;;;3.90;2.67;;;;;;;;;;5037692;28;20029;-68
2023/11/03 13:08:01;;;;;;;6.32;2.95;;;;;;;;;;5038598;28;20311;-68
2023/11/03 13:10:27;;;;;;;4.68;2.85;;;;;;;;;;5046771;28;20036;-70
2023/11/03 13:12:53;;;;;;;6.43;2.80;;;;;;;;;;5026375;28;20036;-68
2023/11/03 13:15:20;;;;;;;5.78;2.42;;;;;;;;;;5042270;28;20028;-69
2023/11/03 13:17:48;;;;;;;3.67;2.40;;;;;;;;;;5045322;28;20039;-69
2023/11/03 13:20:17;;;;;;;4.35;2.80;;;;;;;;;;5040257;28;20056;-69
2023/11/03 13:22:50;;;;;;;7.32;2.58;;;;;;;;;;5031109;28;20064;-68
2023/11/03 13:25:17;;;;;;;7.22;2.40;;;;;;;;;;5034466;28;20034;-68
2023/11/03 13:27:43;;;;;;;3.65;2.08;;;;;;;;;;5036284;28;20035;-68
2023/11/03 13:30:10;;;;;;;4.47;2.28;;;;;;;;;;5028051;28;20041;-68
2023/11/03 13:32:36;;;;;;;5.72;2.65;;;;;;;;;;5038426;28;20029;-67
2023/11/03 13:35:08;;;;;;;7.15;3.28;;;;;;;;;;5036650;28;20037;-69
2023/11/03 13:37:34;;;;;;;5.57;2.22;;;;;;;;;;5041474;28;20499;-67
2023/11/03 13:40:00;;;;;;;3.88;2.30;;;;;;;;;;5041285;28;20116;-68
2023/11/03 13:42:27;;;;;;;2.60;2.05;;;;;;;;;;5038711;28;20339;-68
2023/11/03 13:44:53;;;;;;;4.43;2.00;;;;;;;;;;5036302;28;20032;-67
2023/11/03 13:47:19;;;;;;;4.75;2.38;;;;;;;;;;5040648;28;20659;-68
2023/11/03 13:49:48;;;;;;;5.07;2.60;;;;;;;;;;5042354;28;20577;-68
2023/11/03 13:52:14;;;;;;;4.97;2.15;;;;;;;;;;5026492;28;20029;-68
2023/11/03 13:54:41;;;;;;;4.75;2.47;;;;;;;;;;5038364;28;20029;-67
2023/11/03 13:57:07;;;;;;;4.55;2.50;;;;;;;;;;5037532;28;20025;-67
2023/11/03 13:59:37;;;;;;;4.05;3.17;;;;;;;;;;5037491;28;20102;-69
2023/11/03 14:02:03;;;;;;;2.47;2.17;;;;;;;;;;5033497;28;20080;-69
2023/11/03 14:04:30;;;;;;;6.13;2.60;;;;;;;;;;5038594;28;20025;-69
2023/11/03 14:06:56;;;;;;;3.90;2.08;;;;;;;;;;5037723;28;20021;-69
2023/11/03 14:09:25;;;;;;;7.32;2.17;;;;;;;;;;5035561;28;20029;-68
2023/11/03 14:11:52;;;;;;;7.47;2.60;;;;;;;;;;5035868;28;20394;-69
2023/11/03 14:14:19;;;;;;;7.88;1.95;;;;;;;;;;5038855;28;20414;-68
2023/11/03 14:16:45;;;;;;;6.07;2.28;;;;;;;;;;5016317;28;20081;-68
2023/11/03 14:19:12;;;;;;;7.38;2.63;;;;;;;;;;5028353;28;20039;-70
2023/11/03 14:21:41;;;;;;;4.65;2.55;;;;;;;;;;5032718;28;20064;-68
2023/11/03 14:24:11;;;;;;;8.18;3.08;;;;;;;;;;5038822;28;20109;-70
2023/11/03 14:26:44;;;;;;;3.85;2.45;;;;;;;;;;5012699;28;20056;-69
2023/11/03 14:29:15;;;;;;;3.25;1.80;;;;;;;;;;5035337;28;20044;-69
2023/11/03 14:31:41;;;;;;;4.63;2.08;;;;;;;;;;5045258;28;20028;-71
2023/11/03 14:34:14;;;;;;;2.97;1.80;;;;;;;;;;5040107;28;20039;-70
2023/11/03 14:36:44;;;;;;;6.13;2.40;;;;;;;;;;5039561;28;20039;-69
2023/11/03 14:39:14;;;;;;;5.80;2.58;;;;;;;;;;5035902;28;20086;-67
2023/11/03 14:41:40;;;;;;;5.22;2.97;;;;;;;;;;5042480;28;20497;-68